sensor_id;sensor_type;location;lat;lon;timestamp;pressure;altitude;pressure_sealevel;temperature;humidity
46756;BME280;32506;52.826;-1.192;2024-01-10T00:01:32;102780.66;;;0.67;64.74
46756;BME280;32506;52.826;-1.192;2024-01-10T00:03:57;102778.03;;;0.67;64.72
46756;BME280;32506;52.826;-1.192;2024-01-10T00:06:23;102771.94;;;0.66;64.99
46756;BME280;32506;52.826;-1.192;2024-01-10T00:08:49;102775.50;;;0.65;64.63
46756;BME280;32506;52.826;-1.192;2024-01-10T00:11:15;102771.09;;;0.66;64.60
46756;BME280;32506;52.826;-1.192;2024-01-10T00:13:43;102770.22;;;0.65;64.64
46756;BME280;32506;52.826;-1.192;2024-01-10T00:16:12;102767.69;;;0.64;64.53
46756;BME280;32506;52.826;-1.192;2024-01-10T00:18:39;102764.97;;;0.65;65.00
46756;BME280;32506;52.826;-1.192;2024-01-10T00:21:05;102757.16;;;0.64;64.40
46756;BME280;32506;52.826;-1.192;2024-01-10T00:23:31;102753.59;;;0.65;65.19
46756;BME280;32506;52.826;-1.192;2024-01-10T00:25:56;102745.81;;;0.63;64.91
46756;BME280;32506;52.826;-1.192;2024-01-10T00:28:22;102753.72;;;0.63;64.85
46756;BME280;32506;52.826;-1.192;2024-01-10T00:30:47;102743.19;;;0.63;64.86
46756;BME280;32506;52.826;-1.192;2024-01-10T00:33:14;102741.47;;;0.62;64.58
46756;BME280;32506;52.826;-1.192;2024-01-10T00:35:39;102734.41;;;0.63;64.62
46756;BME280;32506;52.826;-1.192;2024-01-10T00:38:05;102744.94;;;0.63;64.74
46756;BME280;32506;52.826;-1.192;2024-01-10T00:40:30;102742.41;;;0.61;64.93
46756;BME280;32506;52.826;-1.192;2024-01-10T00:42:56;102731.88;;;0.61;64.87
46756;BME280;32506;52.826;-1.192;2024-01-10T00:45:21;102731.06;;;0.61;64.73
46756;BME280;32506;52.826;-1.192;2024-01-10T00:47:50;102739.78;;;0.61;64.97
46756;BME280;32506;52.826;-1.192;2024-01-10T00:50:16;102735.44;;;0.60;64.66
46756;BME280;32506;52.826;-1.192;2024-01-10T00:52:45;102722.28;;;0.60;64.60
46756;BME280;32506;52.826;-1.192;2024-01-10T00:55:13;102717.13;;;0.59;64.75
46756;BME280;32506;52.826;-1.192;2024-01-10T00:57:38;102713.56;;;0.60;64.76
46756;BME280;32506;52.826;-1.192;2024-01-10T01:00:08;102704.84;;;0.59;64.60
46756;BME280;32506;52.826;-1.192;2024-01-10T01:02:34;102699.56;;;0.59;65.23
46756;BME280;32506;52.826;-1.192;2024-01-10T01:05:00;102708.41;;;0.58;65.24
46756;BME280;32506;52.826;-1.192;2024-01-10T01:07:26;102712.72;;;0.59;64.74
46756;BME280;32506;52.826;-1.192;2024-01-10T01:09:52;102703.13;;;0.58;65.23
46756;BME280;32506;52.826;-1.192;2024-01-10T01:12:17;102704.91;;;0.58;65.23
46756;BME280;32506;52.826;-1.192;2024-01-10T01:14:42;102707.53;;;0.58;65.08
46756;BME280;32506;52.826;-1.192;2024-01-10T01:17:08;102706.69;;;0.57;64.81
46756;BME280;32506;52.826;-1.192;2024-01-10T01:19:34;102705.75;;;0.58;64.75
46756;BME280;32506;52.826;-1.192;2024-01-10T01:21:59;102704.91;;;0.58;64.76
46756;BME280;32506;52.826;-1.192;2024-01-10T01:24:26;102698.81;;;0.57;64.67
46756;BME280;32506;52.826;-1.192;2024-01-10T01:26:52;102698.91;;;0.56;65.22
46756;BME280;32506;52.826;-1.192;2024-01-10T01:29:17;102710.16;;;0.58;65.10
46756;BME280;32506;52.826;-1.192;2024-01-10T01:31:43;102705.00;;;0.56;65.07
46756;BME280;32506;52.826;-1.192;2024-01-10T01:34:08;102703.22;;;0.57;65.55
46756;BME280;32506;52.826;-1.192;2024-01-10T01:36:34;102702.28;;;0.58;65.36
46756;BME280;32506;52.826;-1.192;2024-01-10T01:38:59;102697.09;;;0.56;65.16
46756;BME280;32506;52.826;-1.192;2024-01-10T01:41:25;102698.81;;;0.57;65.41
46756;BME280;32506;52.826;-1.192;2024-01-10T01:43:50;102696.16;;;0.57;65.55
46756;BME280;32506;52.826;-1.192;2024-01-10T01:46:15;102686.59;;;0.56;65.55
46756;BME280;32506;52.826;-1.192;2024-01-10T01:48:41;102689.13;;;0.58;65.07
46756;BME280;32506;52.826;-1.192;2024-01-10T01:51:09;102688.28;;;0.57;65.36
46756;BME280;32506;52.826;-1.192;2024-01-10T01:53:36;102690.06;;;0.57;65.36
46756;BME280;32506;52.826;-1.192;2024-01-10T01:56:05;102681.31;;;0.56;65.44
46756;BME280;32506;52.826;-1.192;2024-01-10T01:58:31;102690.06;;;0.57;65.66
46756;BME280;32506;52.826;-1.192;2024-01-10T02:00:57;102677.75;;;0.57;65.22
46756;BME280;32506;52.826;-1.192;2024-01-10T02:03:23;102680.47;;;0.56;65.00
46756;BME280;32506;52.826;-1.192;2024-01-10T02:05:49;102691.84;;;0.56;65.13
46756;BME280;32506;52.826;-1.192;2024-01-10T02:08:14;102686.47;;;0.58;65.51
46756;BME280;32506;52.826;-1.192;2024-01-10T02:10:40;102693.53;;;0.57;65.52
46756;BME280;32506;52.826;-1.192;2024-01-10T02:13:06;102691.84;;;0.56;65.67
46756;BME280;32506;52.826;-1.192;2024-01-10T02:15:34;102692.72;;;0.57;65.06
46756;BME280;32506;52.826;-1.192;2024-01-10T02:18:00;102697.00;;;0.58;65.33
46756;BME280;32506;52.826;-1.192;2024-01-10T02:20:25;102692.72;;;0.57;65.22
46756;BME280;32506;52.826;-1.192;2024-01-10T02:22:51;102696.16;;;0.57;65.21
46756;BME280;32506;52.826;-1.192;2024-01-10T02:25:16;102691.84;;;0.56;65.47
46756;BME280;32506;52.826;-1.192;2024-01-10T02:27:42;102693.63;;;0.56;65.16
46756;BME280;32506;52.826;-1.192;2024-01-10T02:30:08;102690.91;;;0.57;65.43
46756;BME280;32506;52.826;-1.192;2024-01-10T02:32:34;102694.47;;;0.56;64.91
46756;BME280;32506;52.826;-1.192;2024-01-10T02:35:00;102691.00;;;0.56;65.25
46756;BME280;32506;52.826;-1.192;2024-01-10T02:37:25;102688.38;;;0.56;65.47
46756;BME280;32506;52.826;-1.192;2024-01-10T02:39:51;102682.28;;;0.55;65.02
46756;BME280;32506;52.826;-1.192;2024-01-10T02:42:16;102684.91;;;0.55;65.11
46756;BME280;32506;52.826;-1.192;2024-01-10T02:44:42;102681.31;;;0.56;65.60
46756;BME280;32506;52.826;-1.192;2024-01-10T02:47:08;102683.22;;;0.54;65.50
46756;BME280;32506;52.826;-1.192;2024-01-10T02:49:33;102682.28;;;0.55;65.58
46756;BME280;32506;52.826;-1.192;2024-01-10T02:51:59;102680.59;;;0.54;65.31
46756;BME280;32506;52.826;-1.192;2024-01-10T02:54:25;102676.16;;;0.55;64.94
46756;BME280;32506;52.826;-1.192;2024-01-10T02:56:50;102684.06;;;0.55;65.27
46756;BME280;32506;52.826;-1.192;2024-01-10T02:59:16;102688.47;;;0.54;64.99
46756;BME280;32506;52.826;-1.192;2024-01-10T03:01:41;102689.31;;;0.55;65.04
46756;BME280;32506;52.826;-1.192;2024-01-10T03:04:07;102684.97;;;0.54;65.26
46756;BME280;32506;52.826;-1.192;2024-01-10T03:06:32;102675.31;;;0.54;65.21
46756;BME280;32506;52.826;-1.192;2024-01-10T03:08:58;102682.34;;;0.54;65.08
46756;BME280;32506;52.826;-1.192;2024-01-10T03:11:23;102689.41;;;0.53;65.31
46756;BME280;32506;52.826;-1.192;2024-01-10T03:14:01;102683.31;;;0.53;65.48
46756;BME280;32506;52.826;-1.192;2024-01-10T03:16:27;102686.78;;;0.53;65.21
46756;BME280;32506;52.826;-1.192;2024-01-10T03:18:52;102672.78;;;0.53;65.66
46756;BME280;32506;52.826;-1.192;2024-01-10T03:21:18;102682.34;;;0.54;65.64
46756;BME280;32506;52.826;-1.192;2024-01-10T03:23:50;102685.94;;;0.53;65.46
46756;BME280;32506;52.826;-1.192;2024-01-10T03:26:16;102684.16;;;0.53;65.43
46756;BME280;32506;52.826;-1.192;2024-01-10T03:28:41;102687.72;;;0.52;65.60
46756;BME280;32506;52.826;-1.192;2024-01-10T03:31:06;102683.31;;;0.53;65.25
46756;BME280;32506;52.826;-1.192;2024-01-10T03:33:32;102680.75;;;0.51;65.28
46756;BME280;32506;52.826;-1.192;2024-01-10T03:35:58;102679.09;;;0.50;65.16
46756;BME280;32506;52.826;-1.192;2024-01-10T03:38:23;102677.19;;;0.52;65.34
46756;BME280;32506;52.826;-1.192;2024-01-10T03:40:49;102677.28;;;0.50;64.99
46756;BME280;32506;52.826;-1.192;2024-01-10T03:43:14;102670.31;;;0.49;65.33
46756;BME280;32506;52.826;-1.192;2024-01-10T03:45:41;102675.59;;;0.49;65.62
46756;BME280;32506;52.826;-1.192;2024-01-10T03:48:07;102671.19;;;0.50;65.54
46756;BME280;32506;52.826;-1.192;2024-01-10T03:50:32;102680.03;;;0.49;65.89
46756;BME280;32506;52.826;-1.192;2024-01-10T03:52:58;102669.41;;;0.50;65.42
46756;BME280;32506;52.826;-1.192;2024-01-10T03:55:23;102672.13;;;0.49;65.64
46756;BME280;32506;52.826;-1.192;2024-01-10T03:57:49;102670.31;;;0.49;65.14
46756;BME280;32506;52.826;-1.192;2024-01-10T04:00:14;102659.81;;;0.49;65.73
46756;BME280;32506;52.826;-1.192;2024-01-10T04:02:39;102665.16;;;0.48;65.83
46756;BME280;32506;52.826;-1.192;2024-01-10T04:05:09;102669.50;;;0.49;65.45
46756;BME280;32506;52.826;-1.192;2024-01-10T04:07:41;102666.03;;;0.48;65.67
46756;BME280;32506;52.826;-1.192;2024-01-10T04:10:10;102666.88;;;0.49;65.57
46756;BME280;32506;52.826;-1.192;2024-01-10T04:12:45;102668.66;;;0.48;65.07
46756;BME280;32506;52.826;-1.192;2024-01-10T04:15:11;102666.97;;;0.47;65.29
46756;BME280;32506;52.826;-1.192;2024-01-10T04:17:37;102659.06;;;0.47;65.51
46756;BME280;32506;52.826;-1.192;2024-01-10T04:20:03;102663.41;;;0.48;65.58
46756;BME280;32506;52.826;-1.192;2024-01-10T04:22:28;102660.84;;;0.47;65.80
46756;BME280;32506;52.826;-1.192;2024-01-10T04:24:57;102658.19;;;0.47;65.35
46756;BME280;32506;52.826;-1.192;2024-01-10T04:27:22;102646.84;;;0.46;65.59
46756;BME280;32506;52.826;-1.192;2024-01-10T04:29:48;102667.91;;;0.46;65.56
46756;BME280;32506;52.826;-1.192;2024-01-10T04:32:13;102656.63;;;0.44;65.27
46756;BME280;32506;52.826;-1.192;2024-01-10T04:34:39;102653.03;;;0.45;65.64
46756;BME280;32506;52.826;-1.192;2024-01-10T04:37:05;102661.81;;;0.46;65.16
46756;BME280;32506;52.826;-1.192;2024-01-10T04:39:32;102658.31;;;0.45;65.17
46756;BME280;32506;52.826;-1.192;2024-01-10T04:41:58;102649.56;;;0.45;65.69
46756;BME280;32506;52.826;-1.192;2024-01-10T04:44:23;102650.41;;;0.45;65.61
46756;BME280;32506;52.826;-1.192;2024-01-10T04:46:49;102654.84;;;0.45;65.08
46756;BME280;32506;52.826;-1.192;2024-01-10T04:49:14;102654.00;;;0.44;65.17
46756;BME280;32506;52.826;-1.192;2024-01-10T04:51:40;102659.28;;;0.44;65.16
46756;BME280;32506;52.826;-1.192;2024-01-10T04:54:05;102658.31;;;0.45;65.36
46756;BME280;32506;52.826;-1.192;2024-01-10T04:56:31;102647.88;;;0.44;65.23
46756;BME280;32506;52.826;-1.192;2024-01-10T04:58:56;102652.31;;;0.43;65.33
46756;BME280;32506;52.826;-1.192;2024-01-10T05:01:22;102648.75;;;0.44;65.22
46756;BME280;32506;52.826;-1.192;2024-01-10T05:03:48;102648.75;;;0.44;65.64
46756;BME280;32506;52.826;-1.192;2024-01-10T05:06:14;102647.03;;;0.43;65.77
46756;BME280;32506;52.826;-1.192;2024-01-10T05:08:39;102646.94;;;0.45;65.18
46756;BME280;32506;52.826;-1.192;2024-01-10T05:11:05;102654.84;;;0.45;65.13
46756;BME280;32506;52.826;-1.192;2024-01-10T05:13:30;102651.38;;;0.44;65.50
46756;BME280;32506;52.826;-1.192;2024-01-10T05:15:56;102650.50;;;0.44;65.64
46756;BME280;32506;52.826;-1.192;2024-01-10T05:18:21;102646.94;;;0.45;65.72
46756;BME280;32506;52.826;-1.192;2024-01-10T05:20:47;102645.16;;;0.45;65.68
46756;BME280;32506;52.826;-1.192;2024-01-10T05:23:13;102647.78;;;0.45;65.90
46756;BME280;32506;52.826;-1.192;2024-01-10T05:25:39;102640.75;;;0.46;66.16
46756;BME280;32506;52.826;-1.192;2024-01-10T05:28:04;102638.84;;;0.48;66.02
46756;BME280;32506;52.826;-1.192;2024-01-10T05:30:30;102639.78;;;0.47;66.04
46756;BME280;32506;52.826;-1.192;2024-01-10T05:32:57;102637.16;;;0.47;65.48
46756;BME280;32506;52.826;-1.192;2024-01-10T05:35:23;102632.75;;;0.47;65.79
46756;BME280;32506;52.826;-1.192;2024-01-10T05:37:50;102636.13;;;0.49;66.02
46756;BME280;32506;52.826;-1.192;2024-01-10T05:40:15;102637.09;;;0.48;65.73
46756;BME280;32506;52.826;-1.192;2024-01-10T05:42:40;102629.19;;;0.48;65.24
46756;BME280;32506;52.826;-1.192;2024-01-10T05:45:06;102632.66;;;0.49;65.79
46756;BME280;32506;52.826;-1.192;2024-01-10T05:47:32;102624.75;;;0.49;65.25
46756;BME280;32506;52.826;-1.192;2024-01-10T05:49:57;102625.69;;;0.48;65.21
46756;BME280;32506;52.826;-1.192;2024-01-10T05:52:23;102620.34;;;0.49;65.72
46756;BME280;32506;52.826;-1.192;2024-01-10T05:54:48;102626.56;;;0.48;65.93
46756;BME280;32506;52.826;-1.192;2024-01-10T05:57:16;102609.06;;;0.47;65.45
46756;BME280;32506;52.826;-1.192;2024-01-10T05:59:42;102616.97;;;0.47;65.23
46756;BME280;32506;52.826;-1.192;2024-01-10T06:02:07;102610.84;;;0.47;65.60
46756;BME280;32506;52.826;-1.192;2024-01-10T06:04:33;102615.28;;;0.46;65.16
46756;BME280;32506;52.826;-1.192;2024-01-10T06:06:59;102610.94;;;0.45;65.38
46756;BME280;32506;52.826;-1.192;2024-01-10T06:09:24;102615.28;;;0.46;65.03
46756;BME280;32506;52.826;-1.192;2024-01-10T06:11:50;102604.84;;;0.45;65.12
46756;BME280;32506;52.826;-1.192;2024-01-10T06:14:15;102616.22;;;0.45;65.08
46756;BME280;32506;52.826;-1.192;2024-01-10T06:16:41;102614.53;;;0.44;64.98
46756;BME280;32506;52.826;-1.192;2024-01-10T06:19:06;102614.53;;;0.44;65.51
46756;BME280;32506;52.826;-1.192;2024-01-10T06:21:31;102609.34;;;0.43;65.37
46756;BME280;32506;52.826;-1.192;2024-01-10T06:23:57;102612.84;;;0.43;65.35
46756;BME280;32506;52.826;-1.192;2024-01-10T06:26:22;102615.47;;;0.43;65.30
46756;BME280;32506;52.826;-1.192;2024-01-10T06:28:48;102609.44;;;0.41;65.05
46756;BME280;32506;52.826;-1.192;2024-01-10T06:31:13;102613.88;;;0.41;65.47
46756;BME280;32506;52.826;-1.192;2024-01-10T06:33:39;102608.63;;;0.41;65.02
46756;BME280;32506;52.826;-1.192;2024-01-10T06:36:05;102622.69;;;0.40;64.85
46756;BME280;32506;52.826;-1.192;2024-01-10T06:38:30;102615.66;;;0.40;65.19
46756;BME280;32506;52.826;-1.192;2024-01-10T06:40:56;102617.53;;;0.38;65.23
46756;BME280;32506;52.826;-1.192;2024-01-10T06:43:21;102619.25;;;0.39;65.43
46756;BME280;32506;52.826;-1.192;2024-01-10T06:45:47;102610.59;;;0.37;65.52
46756;BME280;32506;52.826;-1.192;2024-01-10T06:48:13;102622.91;;;0.37;65.13
46756;BME280;32506;52.826;-1.192;2024-01-10T06:50:39;102625.53;;;0.37;65.08
46756;BME280;32506;52.826;-1.192;2024-01-10T06:53:04;102624.66;;;0.36;65.60
46756;BME280;32506;52.826;-1.192;2024-01-10T06:55:29;102623.00;;;0.35;65.20
46756;BME280;32506;52.826;-1.192;2024-01-10T06:57:55;102620.38;;;0.35;65.18
46756;BME280;32506;52.826;-1.192;2024-01-10T07:00:21;102623.94;;;0.34;65.58
46756;BME280;32506;52.826;-1.192;2024-01-10T07:02:47;102618.78;;;0.32;64.73
46756;BME280;32506;52.826;-1.192;2024-01-10T07:05:14;102615.28;;;0.32;64.95
46756;BME280;32506;52.826;-1.192;2024-01-10T07:07:39;102617.06;;;0.31;64.99
46756;BME280;32506;52.826;-1.192;2024-01-10T07:10:05;102623.28;;;0.30;64.75
46756;BME280;32506;52.826;-1.192;2024-01-10T07:12:32;102620.75;;;0.29;64.87
46756;BME280;32506;52.826;-1.192;2024-01-10T07:14:58;102626.00;;;0.29;65.29
46756;BME280;32506;52.826;-1.192;2024-01-10T07:17:23;102612.03;;;0.28;64.70
46756;BME280;32506;52.826;-1.192;2024-01-10T07:19:49;102619.91;;;0.28;65.07
46756;BME280;32506;52.826;-1.192;2024-01-10T07:22:14;102619.03;;;0.28;64.74
46756;BME280;32506;52.826;-1.192;2024-01-10T07:24:40;102612.19;;;0.25;65.20
46756;BME280;32506;52.826;-1.192;2024-01-10T07:27:05;102613.97;;;0.25;65.07
46756;BME280;32506;52.826;-1.192;2024-01-10T07:29:32;102615.78;;;0.24;65.34
46756;BME280;32506;52.826;-1.192;2024-01-10T07:31:57;102614.91;;;0.24;65.01
46756;BME280;32506;52.826;-1.192;2024-01-10T07:34:23;102624.59;;;0.23;65.39
46756;BME280;32506;52.826;-1.192;2024-01-10T07:36:48;102627.22;;;0.23;64.89
46756;BME280;32506;52.826;-1.192;2024-01-10T07:39:14;102616.81;;;0.22;65.18
46756;BME280;32506;52.826;-1.192;2024-01-10T07:41:46;102627.34;;;0.22;64.97
46756;BME280;32506;52.826;-1.192;2024-01-10T07:44:11;102629.09;;;0.21;65.43
46756;BME280;32506;52.826;-1.192;2024-01-10T07:46:37;102629.09;;;0.21;65.77
46756;BME280;32506;52.826;-1.192;2024-01-10T07:49:06;102633.44;;;0.22;65.45
46756;BME280;32506;52.826;-1.192;2024-01-10T07:51:31;102630.78;;;0.22;65.58
46756;BME280;32506;52.826;-1.192;2024-01-10T07:53:58;102634.25;;;0.23;65.52
46756;BME280;32506;52.826;-1.192;2024-01-10T07:56:24;102636.06;;;0.22;65.98
46756;BME280;32506;52.826;-1.192;2024-01-10T07:58:49;102635.13;;;0.23;66.24
46756;BME280;32506;52.826;-1.192;2024-01-10T08:01:16;102639.53;;;0.23;65.87
46756;BME280;32506;52.826;-1.192;2024-01-10T08:03:42;102628.84;;;0.26;65.82
46756;BME280;32506;52.826;-1.192;2024-01-10T08:06:07;102633.22;;;0.25;66.42
46756;BME280;32506;52.826;-1.192;2024-01-10T08:08:33;102634.94;;;0.26;65.87
46756;BME280;32506;52.826;-1.192;2024-01-10T08:10:59;102630.44;;;0.28;66.42
46756;BME280;32506;52.826;-1.192;2024-01-10T08:13:24;102635.69;;;0.28;66.43
46756;BME280;32506;52.826;-1.192;2024-01-10T08:15:49;102632.97;;;0.30;66.75
46756;BME280;32506;52.826;-1.192;2024-01-10T08:18:16;102631.16;;;0.30;66.49
46756;BME280;32506;52.826;-1.192;2024-01-10T08:20:41;102633.69;;;0.32;66.69
46756;BME280;32506;52.826;-1.192;2024-01-10T08:23:07;102632.66;;;0.35;66.89
46756;BME280;32506;52.826;-1.192;2024-01-10T08:25:33;102638.78;;;0.35;66.47
46756;BME280;32506;52.826;-1.192;2024-01-10T08:27:58;102629.00;;;0.37;67.05
46756;BME280;32506;52.826;-1.192;2024-01-10T08:30:24;102646.47;;;0.38;66.90
46756;BME280;32506;52.826;-1.192;2024-01-10T08:32:50;102635.03;;;0.39;66.49
46756;BME280;32506;52.826;-1.192;2024-01-10T08:35:15;102634.06;;;0.40;67.19
46756;BME280;32506;52.826;-1.192;2024-01-10T08:37:41;102634.00;;;0.42;67.06
46756;BME280;32506;52.826;-1.192;2024-01-10T08:40:12;102640.84;;;0.44;66.49
46756;BME280;32506;52.826;-1.192;2024-01-10T08:42:40;102632.00;;;0.45;66.94
46756;BME280;32506;52.826;-1.192;2024-01-10T08:45:06;102639.78;;;0.47;66.74
46756;BME280;32506;52.826;-1.192;2024-01-10T08:47:35;102637.09;;;0.48;67.01
46756;BME280;32506;52.826;-1.192;2024-01-10T08:50:01;102637.81;;;0.50;67.31
46756;BME280;32506;52.826;-1.192;2024-01-10T08:52:27;102636.88;;;0.52;66.94
46756;BME280;32506;52.826;-1.192;2024-01-10T08:54:52;102631.41;;;0.55;66.89
46756;BME280;32506;52.826;-1.192;2024-01-10T08:57:18;102635.66;;;0.57;67.31
46756;BME280;32506;52.826;-1.192;2024-01-10T08:59:43;102632.91;;;0.59;66.73
46756;BME280;32506;52.826;-1.192;2024-01-10T09:02:09;102630.94;;;0.62;67.36
46756;BME280;32506;52.826;-1.192;2024-01-10T09:04:34;102640.34;;;0.66;67.05
46756;BME280;32506;52.826;-1.192;2024-01-10T09:07:00;102639.28;;;0.69;67.22
46756;BME280;32506;52.826;-1.192;2024-01-10T09:09:25;102641.72;;;0.72;67.45
46756;BME280;32506;52.826;-1.192;2024-01-10T09:11:50;102637.13;;;0.76;66.80
46756;BME280;32506;52.826;-1.192;2024-01-10T09:14:16;102640.41;;;0.79;66.99
46756;BME280;32506;52.826;-1.192;2024-01-10T09:16:41;102634.09;;;0.82;67.09
46756;BME280;32506;52.826;-1.192;2024-01-10T09:19:07;102649.59;;;0.87;67.55
46756;BME280;32506;52.826;-1.192;2024-01-10T09:21:33;102648.34;;;0.92;66.93
46756;BME280;32506;52.826;-1.192;2024-01-10T09:23:58;102642.91;;;0.95;66.76
46756;BME280;32506;52.826;-1.192;2024-01-10T09:26:23;102645.03;;;1.03;66.70
46756;BME280;32506;52.826;-1.192;2024-01-10T09:28:49;102643.69;;;1.10;66.78
46756;BME280;32506;52.826;-1.192;2024-01-10T09:31:14;102648.56;;;1.16;66.83
46756;BME280;32506;52.826;-1.192;2024-01-10T09:33:40;102642.78;;;1.24;66.72
46756;BME280;32506;52.826;-1.192;2024-01-10T09:36:06;102636.06;;;1.33;67.25
46756;BME280;32506;52.826;-1.192;2024-01-10T09:38:35;102637.13;;;1.43;67.02
46756;BME280;32506;52.826;-1.192;2024-01-10T09:41:02;102640.75;;;1.55;67.23
46756;BME280;32506;52.826;-1.192;2024-01-10T09:43:30;102642.25;;;1.72;66.81
46756;BME280;32506;52.826;-1.192;2024-01-10T09:45:57;102653.22;;;1.92;66.63
46756;BME280;32506;52.826;-1.192;2024-01-10T09:48:24;102651.25;;;2.08;66.70
46756;BME280;32506;52.826;-1.192;2024-01-10T09:50:51;102640.34;;;2.26;65.50
46756;BME280;32506;52.826;-1.192;2024-01-10T09:53:27;102651.06;;;2.48;65.56
46756;BME280;32506;52.826;-1.192;2024-01-10T09:55:53;102652.53;;;2.90;65.00
46756;BME280;32506;52.826;-1.192;2024-01-10T09:58:23;102659.16;;;3.44;63.63
46756;BME280;32506;52.826;-1.192;2024-01-10T10:00:49;102652.56;;;3.96;62.40
46756;BME280;32506;52.826;-1.192;2024-01-10T10:03:17;102643.53;;;4.44;61.04
46756;BME280;32506;52.826;-1.192;2024-01-10T10:05:43;102646.25;;;4.88;59.60
46756;BME280;32506;52.826;-1.192;2024-01-10T10:08:11;102650.59;;;5.21;59.09
46756;BME280;32506;52.826;-1.192;2024-01-10T10:10:37;102654.25;;;5.42;58.34
46756;BME280;32506;52.826;-1.192;2024-01-10T10:13:08;102643.72;;;5.51;58.63
46756;BME280;32506;52.826;-1.192;2024-01-10T10:15:36;102643.78;;;5.61;58.18
46756;BME280;32506;52.826;-1.192;2024-01-10T10:18:02;102641.97;;;5.62;57.97
46756;BME280;32506;52.826;-1.192;2024-01-10T10:20:29;102649.47;;;5.57;59.01
46756;BME280;32506;52.826;-1.192;2024-01-10T10:25:35;102656.25;;;5.28;59.69
46756;BME280;32506;52.826;-1.192;2024-01-10T10:28:02;102654.75;;;5.14;60.32
46756;BME280;32506;52.826;-1.192;2024-01-10T10:30:29;102660.78;;;5.05;61.25
46756;BME280;32506;52.826;-1.192;2024-01-10T10:32:55;102656.09;;;4.97;61.44
46756;BME280;32506;52.826;-1.192;2024-01-10T10:35:21;102652.16;;;4.92;61.79
46756;BME280;32506;52.826;-1.192;2024-01-10T10:37:48;102652.25;;;4.90;62.34
46756;BME280;32506;52.826;-1.192;2024-01-10T10:40:15;102661.06;;;4.91;62.74
46756;BME280;32506;52.826;-1.192;2024-01-10T10:42:44;102650.47;;;4.91;62.57
46756;BME280;32506;52.826;-1.192;2024-01-10T10:45:15;102656.59;;;4.91;62.94
46756;BME280;32506;52.826;-1.192;2024-01-10T10:47:43;102659.03;;;4.94;63.67
46756;BME280;32506;52.826;-1.192;2024-01-10T10:50:13;102649.72;;;5.00;63.98
46756;BME280;32506;52.826;-1.192;2024-01-10T10:52:45;102654.97;;;5.11;63.77
46756;BME280;32506;52.826;-1.192;2024-01-10T10:55:15;102644.22;;;5.24;64.06
46756;BME280;32506;52.826;-1.192;2024-01-10T10:57:44;102641.13;;;5.40;63.84
46756;BME280;32506;52.826;-1.192;2024-01-10T11:00:11;102642.47;;;5.55;64.20
46756;BME280;32506;52.826;-1.192;2024-01-10T11:02:40;102640.53;;;5.79;63.59
46756;BME280;32506;52.826;-1.192;2024-01-10T11:05:08;102630.38;;;6.05;63.81
46756;BME280;32506;52.826;-1.192;2024-01-10T11:07:40;102634.91;;;6.24;63.25
46756;BME280;32506;52.826;-1.192;2024-01-10T11:10:10;102627.84;;;6.34;63.34
46756;BME280;32506;52.826;-1.192;2024-01-10T11:18:09;102632.59;;;7.11;62.14
46756;BME280;32506;52.826;-1.192;2024-01-10T11:20:57;102625.03;;;7.35;62.77
46756;BME280;32506;52.826;-1.192;2024-01-10T11:23:38;102625.28;;;7.62;62.52
46756;BME280;32506;52.826;-1.192;2024-01-10T11:26:05;102624.81;;;7.86;62.33
46756;BME280;32506;52.826;-1.192;2024-01-10T11:28:32;102615.88;;;8.15;62.49
46756;BME280;32506;52.826;-1.192;2024-01-10T11:30:58;102607.72;;;8.44;62.12
46756;BME280;32506;52.826;-1.192;2024-01-10T11:33:30;102615.75;;;8.72;61.85
46756;BME280;32506;52.826;-1.192;2024-01-10T11:38:41;102610.41;;;9.08;61.32
46756;BME280;32506;52.826;-1.192;2024-01-10T11:41:10;102615.13;;;9.14;61.37
46756;BME280;32506;52.826;-1.192;2024-01-10T11:43:35;102607.19;;;9.22;61.97
46756;BME280;32506;52.826;-1.192;2024-01-10T11:46:02;102599.88;;;9.24;62.10
46756;BME280;32506;52.826;-1.192;2024-01-10T11:48:31;102606.38;;;9.22;62.31
46756;BME280;32506;52.826;-1.192;2024-01-10T11:50:57;102600.13;;;9.13;62.33
46756;BME280;32506;52.826;-1.192;2024-01-10T11:53:42;102607.53;;;9.01;62.58
46756;BME280;32506;52.826;-1.192;2024-01-10T11:56:15;102599.22;;;8.86;63.32
46756;BME280;32506;52.826;-1.192;2024-01-10T11:59:00;102589.47;;;8.77;63.51
46756;BME280;32506;52.826;-1.192;2024-01-10T12:01:27;102596.44;;;8.78;63.97
46756;BME280;32506;52.826;-1.192;2024-01-10T12:03:53;102601.81;;;8.96;65.06
46756;BME280;32506;52.826;-1.192;2024-01-10T12:06:21;102592.84;;;9.42;63.43
46756;BME280;32506;52.826;-1.192;2024-01-10T12:08:46;102595.44;;;10.20;62.57
46756;BME280;32506;52.826;-1.192;2024-01-10T12:11:12;102578.56;;;11.45;59.56
46756;BME280;32506;52.826;-1.192;2024-01-10T12:13:37;102577.50;;;12.82;56.60
46756;BME280;32506;52.826;-1.192;2024-01-10T12:16:03;102573.09;;;14.10;53.99
46756;BME280;32506;52.826;-1.192;2024-01-10T12:18:28;102579.47;;;15.25;51.91
46756;BME280;32506;52.826;-1.192;2024-01-10T12:20:54;102564.69;;;16.20;49.30
46756;BME280;32506;52.826;-1.192;2024-01-10T12:23:19;102564.78;;;16.67;47.87
46756;BME280;32506;52.826;-1.192;2024-01-10T12:25:45;102565.78;;;16.46;47.95
46756;BME280;32506;52.826;-1.192;2024-01-10T12:28:16;102564.28;;;15.81;48.88
46756;BME280;32506;52.826;-1.192;2024-01-10T12:30:42;102561.53;;;15.11;50.43
46756;BME280;32506;52.826;-1.192;2024-01-10T12:33:08;102562.53;;;14.45;51.81
46756;BME280;32506;52.826;-1.192;2024-01-10T12:35:34;102557.91;;;13.87;53.20
46756;BME280;32506;52.826;-1.192;2024-01-10T12:37:59;102559.63;;;13.35;54.38
46756;BME280;32506;52.826;-1.192;2024-01-10T12:40:25;102570.06;;;12.92;55.31
46756;BME280;32506;52.826;-1.192;2024-01-10T12:43:04;102566.47;;;12.53;56.42
46756;BME280;32506;52.826;-1.192;2024-01-10T12:45:30;102555.47;;;12.17;56.92
46756;BME280;32506;52.826;-1.192;2024-01-10T12:47:57;102561.59;;;11.86;57.68
46756;BME280;32506;52.826;-1.192;2024-01-10T12:50:23;102571.69;;;11.59;58.45
46756;BME280;32506;52.826;-1.192;2024-01-10T12:52:50;102566.38;;;11.34;58.92
46756;BME280;32506;52.826;-1.192;2024-01-10T12:55:15;102559.72;;;11.14;59.08
46756;BME280;32506;52.826;-1.192;2024-01-10T12:57:43;102556.72;;;10.92;59.44